sensor_id;sensor_type;location;lat;lon;timestamp;P1;durP1;ratioP1;P2;durP2;ratioP2
6185;SDS011;3126;52.738;8.316;2023-01-16T00:01:50;3.78;;;1.27;;
6185;SDS011;3126;52.738;8.316;2023-01-16T00:06:51;2.40;;;1.38;;
6185;SDS011;3126;52.738;8.316;2023-01-16T00:11:52;4.80;;;2.00;;
6185;SDS011;3126;52.738;8.316;2023-01-16T00:16:53;2.97;;;1.75;;
6185;SDS011;3126;52.738;8.316;2023-01-16T00:21:54;3.13;;;2.05;;
6185;SDS011;3126;52.738;8.316;2023-01-16T00:26:55;2.03;;;1.20;;
6185;SDS011;3126;52.738;8.316;2023-01-16T00:31:56;6.55;;;2.17;;
6185;SDS011;3126;52.738;8.316;2023-01-16T00:36:57;5.72;;;2.03;;
6185;SDS011;3126;52.738;8.316;2023-01-16T00:41:58;3.63;;;1.33;;
6185;SDS011;3126;52.738;8.316;2023-01-16T00:46:59;1.88;;;1.50;;
6185;SDS011;3126;52.738;8.316;2023-01-16T00:52:00;5.60;;;1.88;;
6185;SDS011;3126;52.738;8.316;2023-01-16T00:57:01;3.53;;;2.00;;
6185;SDS011;3126;52.738;8.316;2023-01-16T01:02:02;6.78;;;3.17;;
6185;SDS011;3126;52.738;8.316;2023-01-16T01:07:03;5.63;;;2.13;;
6185;SDS011;3126;52.738;8.316;2023-01-16T01:12:04;7.43;;;2.25;;
6185;SDS011;3126;52.738;8.316;2023-01-16T01:17:05;3.03;;;1.60;;
6185;SDS011;3126;52.738;8.316;2023-01-16T01:22:06;6.95;;;2.22;;
6185;SDS011;3126;52.738;8.316;2023-01-16T01:27:07;1.92;;;1.73;;
6185;SDS011;3126;52.738;8.316;2023-01-16T01:32:08;6.35;;;1.98;;
6185;SDS011;3126;52.738;8.316;2023-01-16T01:37:09;2.47;;;1.48;;
6185;SDS011;3126;52.738;8.316;2023-01-16T01:42:10;3.92;;;1.77;;
6185;SDS011;3126;52.738;8.316;2023-01-16T01:47:32;3.13;;;1.73;;
6185;SDS011;3126;52.738;8.316;2023-01-16T01:52:34;3.50;;;1.20;;
6185;SDS011;3126;52.738;8.316;2023-01-16T01:57:37;3.08;;;1.58;;
6185;SDS011;3126;52.738;8.316;2023-01-16T02:02:40;4.10;;;1.45;;
6185;SDS011;3126;52.738;8.316;2023-01-16T02:07:42;3.70;;;1.92;;
6185;SDS011;3126;52.738;8.316;2023-01-16T02:12:43;2.13;;;1.58;;
6185;SDS011;3126;52.738;8.316;2023-01-16T02:17:44;2.20;;;2.00;;
6185;SDS011;3126;52.738;8.316;2023-01-16T02:28:23;3.72;;;1.60;;
6185;SDS011;3126;52.738;8.316;2023-01-16T02:43:34;2.28;;;1.60;;
6185;SDS011;3126;52.738;8.316;2023-01-16T02:48:48;1.98;;;1.80;;
6185;SDS011;3126;52.738;8.316;2023-01-16T02:59:00;6.45;;;1.55;;
6185;SDS011;3126;52.738;8.316;2023-01-16T03:19:40;3.33;;;1.10;;
6185;SDS011;3126;52.738;8.316;2023-01-16T03:30:35;1.70;;;1.48;;
6185;SDS011;3126;52.738;8.316;2023-01-16T03:40:41;1.80;;;1.27;;
6185;SDS011;3126;52.738;8.316;2023-01-16T03:45:45;2.08;;;1.30;;
6185;SDS011;3126;52.738;8.316;2023-01-16T03:50:52;1.58;;;1.48;;
6185;SDS011;3126;52.738;8.316;2023-01-16T03:55:57;2.33;;;1.10;;
6185;SDS011;3126;52.738;8.316;2023-01-16T04:01:11;2.88;;;1.60;;
6185;SDS011;3126;52.738;8.316;2023-01-16T04:06:17;2.30;;;1.58;;
6185;SDS011;3126;52.738;8.316;2023-01-16T04:11:19;1.92;;;1.20;;
6185;SDS011;3126;52.738;8.316;2023-01-16T04:16:21;1.98;;;1.70;;
6185;SDS011;3126;52.738;8.316;2023-01-16T04:21:26;4.35;;;2.10;;
6185;SDS011;3126;52.738;8.316;2023-01-16T04:26:28;4.45;;;1.67;;
6185;SDS011;3126;52.738;8.316;2023-01-16T04:31:29;1.98;;;1.60;;
6185;SDS011;3126;52.738;8.316;2023-01-16T04:36:30;7.15;;;1.73;;
6185;SDS011;3126;52.738;8.316;2023-01-16T04:41:31;2.33;;;2.00;;
6185;SDS011;3126;52.738;8.316;2023-01-16T04:46:38;2.58;;;1.98;;
6185;SDS011;3126;52.738;8.316;2023-01-16T04:51:39;4.30;;;1.88;;
6185;SDS011;3126;52.738;8.316;2023-01-16T04:56:40;4.13;;;2.20;;
6185;SDS011;3126;52.738;8.316;2023-01-16T05:01:41;2.83;;;2.63;;
6185;SDS011;3126;52.738;8.316;2023-01-16T05:06:43;4.97;;;2.25;;
6185;SDS011;3126;52.738;8.316;2023-01-16T05:11:44;4.53;;;2.75;;
6185;SDS011;3126;52.738;8.316;2023-01-16T05:16:45;5.13;;;3.47;;
6185;SDS011;3126;52.738;8.316;2023-01-16T05:21:46;3.40;;;3.10;;
6185;SDS011;3126;52.738;8.316;2023-01-16T05:26:47;4.60;;;2.85;;
6185;SDS011;3126;52.738;8.316;2023-01-16T05:31:48;4.63;;;2.95;;
6185;SDS011;3126;52.738;8.316;2023-01-16T05:36:49;5.68;;;3.20;;
6185;SDS011;3126;52.738;8.316;2023-01-16T05:41:50;7.05;;;4.93;;
6185;SDS011;3126;52.738;8.316;2023-01-16T05:46:51;6.97;;;3.65;;
6185;SDS011;3126;52.738;8.316;2023-01-16T05:51:52;5.80;;;3.85;;
6185;SDS011;3126;52.738;8.316;2023-01-16T05:56:53;11.10;;;4.03;;
6185;SDS011;3126;52.738;8.316;2023-01-16T06:01:54;6.25;;;3.58;;
6185;SDS011;3126;52.738;8.316;2023-01-16T06:06:56;4.18;;;3.50;;
6185;SDS011;3126;52.738;8.316;2023-01-16T06:11:57;3.95;;;2.70;;
6185;SDS011;3126;52.738;8.316;2023-01-16T06:16:58;4.35;;;3.95;;
6185;SDS011;3126;52.738;8.316;2023-01-16T06:21:59;3.30;;;3.00;;
6185;SDS011;3126;52.738;8.316;2023-01-16T06:27:00;5.25;;;3.17;;
6185;SDS011;3126;52.738;8.316;2023-01-16T06:32:02;5.07;;;2.90;;
6185;SDS011;3126;52.738;8.316;2023-01-16T06:37:03;5.63;;;2.60;;
6185;SDS011;3126;52.738;8.316;2023-01-16T06:42:04;5.28;;;2.53;;
6185;SDS011;3126;52.738;8.316;2023-01-16T06:47:06;3.78;;;2.50;;
6185;SDS011;3126;52.738;8.316;2023-01-16T06:52:08;2.90;;;2.20;;
6185;SDS011;3126;52.738;8.316;2023-01-16T06:57:09;3.83;;;1.70;;
6185;SDS011;3126;52.738;8.316;2023-01-16T07:02:10;2.45;;;1.58;;
6185;SDS011;3126;52.738;8.316;2023-01-16T07:07:11;3.10;;;1.45;;
6185;SDS011;3126;52.738;8.316;2023-01-16T07:12:12;9.25;;;1.60;;
6185;SDS011;3126;52.738;8.316;2023-01-16T07:17:13;3.25;;;1.70;;
6185;SDS011;3126;52.738;8.316;2023-01-16T07:22:33;4.95;;;1.58;;
6185;SDS011;3126;52.738;8.316;2023-01-16T07:27:35;2.97;;;1.33;;
6185;SDS011;3126;52.738;8.316;2023-01-16T07:32:36;2.58;;;1.20;;
6185;SDS011;3126;52.738;8.316;2023-01-16T07:37:37;3.50;;;1.20;;
6185;SDS011;3126;52.738;8.316;2023-01-16T07:42:39;3.30;;;1.30;;
6185;SDS011;3126;52.738;8.316;2023-01-16T07:47:40;3.63;;;1.30;;
6185;SDS011;3126;52.738;8.316;2023-01-16T07:52:44;3.95;;;1.27;;
6185;SDS011;3126;52.738;8.316;2023-01-16T07:57:46;5.45;;;1.40;;
6185;SDS011;3126;52.738;8.316;2023-01-16T08:02:47;4.22;;;1.20;;
6185;SDS011;3126;52.738;8.316;2023-01-16T08:07:48;2.72;;;1.20;;
6185;SDS011;3126;52.738;8.316;2023-01-16T08:12:49;4.18;;;1.40;;
6185;SDS011;3126;52.738;8.316;2023-01-16T08:17:50;2.42;;;1.02;;
6185;SDS011;3126;52.738;8.316;2023-01-16T08:22:51;2.13;;;0.93;;
6185;SDS011;3126;52.738;8.316;2023-01-16T08:27:52;2.17;;;1.10;;
6185;SDS011;3126;52.738;8.316;2023-01-16T08:32:59;3.45;;;1.30;;
6185;SDS011;3126;52.738;8.316;2023-01-16T08:38:00;2.47;;;0.93;;
6185;SDS011;3126;52.738;8.316;2023-01-16T08:43:01;2.45;;;0.93;;
6185;SDS011;3126;52.738;8.316;2023-01-16T08:48:23;3.17;;;1.08;;
6185;SDS011;3126;52.738;8.316;2023-01-16T08:53:43;1.30;;;0.70;;
6185;SDS011;3126;52.738;8.316;2023-01-16T08:58:44;1.70;;;0.77;;
6185;SDS011;3126;52.738;8.316;2023-01-16T09:03:45;2.20;;;1.08;;
6185;SDS011;3126;52.738;8.316;2023-01-16T09:08:46;1.63;;;0.50;;
6185;SDS011;3126;52.738;8.316;2023-01-16T09:13:47;2.13;;;1.20;;
6185;SDS011;3126;52.738;8.316;2023-01-16T09:18:48;1.48;;;0.43;;
6185;SDS011;3126;52.738;8.316;2023-01-16T09:23:50;2.42;;;1.10;;
6185;SDS011;3126;52.738;8.316;2023-01-16T09:28:51;1.55;;;0.50;;
6185;SDS011;3126;52.738;8.316;2023-01-16T09:33:52;2.22;;;0.57;;
6185;SDS011;3126;52.738;8.316;2023-01-16T09:38:54;2.42;;;1.00;;
6185;SDS011;3126;52.738;8.316;2023-01-16T09:43:55;1.58;;;1.45;;
6185;SDS011;3126;52.738;8.316;2023-01-16T09:49:01;1.70;;;1.00;;
6185;SDS011;3126;52.738;8.316;2023-01-16T09:54:04;1.20;;;1.13;;
6185;SDS011;3126;52.738;8.316;2023-01-16T09:59:39;2.55;;;1.00;;
6185;SDS011;3126;52.738;8.316;2023-01-16T10:04:41;1.00;;;0.90;;
6185;SDS011;3126;52.738;8.316;2023-01-16T10:09:49;3.17;;;1.60;;
6185;SDS011;3126;52.738;8.316;2023-01-16T10:25:06;3.33;;;1.42;;
6185;SDS011;3126;52.738;8.316;2023-01-16T10:40:24;2.30;;;1.08;;
6185;SDS011;3126;52.738;8.316;2023-01-16T10:45:27;1.63;;;1.50;;
6185;SDS011;3126;52.738;8.316;2023-01-16T10:50:47;3.38;;;1.33;;
6185;SDS011;3126;52.738;8.316;2023-01-16T10:55:48;3.67;;;1.55;;
6185;SDS011;3126;52.738;8.316;2023-01-16T11:00:52;2.05;;;1.50;;
6185;SDS011;3126;52.738;8.316;2023-01-16T11:06:11;2.40;;;1.30;;
6185;SDS011;3126;52.738;8.316;2023-01-16T11:11:13;2.53;;;1.10;;
6185;SDS011;3126;52.738;8.316;2023-01-16T11:16:33;1.25;;;1.15;;
6185;SDS011;3126;52.738;8.316;2023-01-16T11:21:56;2.40;;;1.25;;
6185;SDS011;3126;52.738;8.316;2023-01-16T11:27:00;3.22;;;1.55;;
6185;SDS011;3126;52.738;8.316;2023-01-16T11:32:06;1.73;;;1.13;;
6185;SDS011;3126;52.738;8.316;2023-01-16T11:37:09;1.95;;;0.80;;
6185;SDS011;3126;52.738;8.316;2023-01-16T11:42:12;4.00;;;1.40;;
6185;SDS011;3126;52.738;8.316;2023-01-16T11:47:39;2.78;;;0.98;;
6185;SDS011;3126;52.738;8.316;2023-01-16T11:52:40;2.00;;;1.45;;
6185;SDS011;3126;52.738;8.316;2023-01-16T11:57:51;3.05;;;1.60;;
6185;SDS011;3126;52.738;8.316;2023-01-16T12:13:06;3.72;;;1.35;;
6185;SDS011;3126;52.738;8.316;2023-01-16T12:23:46;3.13;;;1.65;;
6185;SDS011;3126;52.738;8.316;2023-01-16T12:28:57;1.15;;;1.10;;
6185;SDS011;3126;52.738;8.316;2023-01-16T12:44:27;1.90;;;0.90;;
6185;SDS011;3126;52.738;8.316;2023-01-16T12:49:42;2.40;;;1.15;;
6185;SDS011;3126;52.738;8.316;2023-01-16T12:59:56;1.00;;;0.40;;
6185;SDS011;3126;52.738;8.316;2023-01-16T13:05:01;1.85;;;1.10;;
6185;SDS011;3126;52.738;8.316;2023-01-16T13:10:05;1.15;;;0.80;;
6185;SDS011;3126;52.738;8.316;2023-01-16T13:15:32;1.00;;;1.00;;
6185;SDS011;3126;52.738;8.316;2023-01-16T13:20:34;2.03;;;0.82;;
6185;SDS011;3126;52.738;8.316;2023-01-16T13:25:39;2.42;;;0.70;;
6185;SDS011;3126;52.738;8.316;2023-01-16T13:30:42;1.17;;;0.80;;
6185;SDS011;3126;52.738;8.316;2023-01-16T13:46:39;0.55;;;0.50;;
6185;SDS011;3126;52.738;8.316;2023-01-16T13:51:41;0.77;;;0.65;;
6185;SDS011;3126;52.738;8.316;2023-01-16T13:56:43;1.77;;;1.02;;
6185;SDS011;3126;52.738;8.316;2023-01-16T14:01:56;1.45;;;0.47;;
6185;SDS011;3126;52.738;8.316;2023-01-16T14:07:00;1.50;;;0.85;;
6185;SDS011;3126;52.738;8.316;2023-01-16T14:12:20;1.02;;;0.93;;
6185;SDS011;3126;52.738;8.316;2023-01-16T14:17:25;0.85;;;0.65;;
6185;SDS011;3126;52.738;8.316;2023-01-16T14:22:34;1.30;;;0.80;;
6185;SDS011;3126;52.738;8.316;2023-01-16T14:27:39;1.20;;;0.60;;
6185;SDS011;3126;52.738;8.316;2023-01-16T14:32:44;1.55;;;0.60;;
6185;SDS011;3126;52.738;8.316;2023-01-16T14:38:04;1.80;;;0.50;;
6185;SDS011;3126;52.738;8.316;2023-01-16T14:43:07;3.53;;;0.68;;
6185;SDS011;3126;52.738;8.316;2023-01-16T14:48:36;0.60;;;0.60;;
6185;SDS011;3126;52.738;8.316;2023-01-16T14:53:57;0.43;;;0.43;;
6185;SDS011;3126;52.738;8.316;2023-01-16T15:04:21;2.33;;;0.90;;
6185;SDS011;3126;52.738;8.316;2023-01-16T15:09:22;0.80;;;0.43;;
6185;SDS011;3126;52.738;8.316;2023-01-16T15:14:23;0.60;;;0.60;;
6185;SDS011;3126;52.738;8.316;2023-01-16T15:19:31;0.75;;;0.75;;
6185;SDS011;3126;52.738;8.316;2023-01-16T15:24:53;0.60;;;0.60;;
6185;SDS011;3126;52.738;8.316;2023-01-16T15:30:05;2.08;;;0.40;;
6185;SDS011;3126;52.738;8.316;2023-01-16T15:35:14;4.55;;;0.82;;
6185;SDS011;3126;52.738;8.316;2023-01-16T15:40:22;2.03;;;0.30;;
6185;SDS011;3126;52.738;8.316;2023-01-16T15:45:24;0.38;;;0.38;;
6185;SDS011;3126;52.738;8.316;2023-01-16T15:51:30;0.52;;;0.52;;
6185;SDS011;3126;52.738;8.316;2023-01-16T15:56:18;1.15;;;0.80;;
6185;SDS011;3126;52.738;8.316;2023-01-16T16:01:33;1.40;;;1.27;;
6185;SDS011;3126;52.738;8.316;2023-01-16T16:06:34;0.82;;;0.82;;
6185;SDS011;3126;52.738;8.316;2023-01-16T16:11:38;0.88;;;0.88;;
6185;SDS011;3126;52.738;8.316;2023-01-16T16:17:03;1.65;;;0.57;;
6185;SDS011;3126;52.738;8.316;2023-01-16T16:22:23;0.30;;;0.30;;
6185;SDS011;3126;52.738;8.316;2023-01-16T16:27:43;0.57;;;0.57;;
6185;SDS011;3126;52.738;8.316;2023-01-16T16:32:44;0.73;;;0.73;;
6185;SDS011;3126;52.738;8.316;2023-01-16T16:37:45;1.13;;;0.82;;
6185;SDS011;3126;52.738;8.316;2023-01-16T16:47:48;0.73;;;0.73;;
6185;SDS011;3126;52.738;8.316;2023-01-16T16:53:24;0.80;;;0.80;;
6185;SDS011;3126;52.738;8.316;2023-01-16T16:58:25;1.15;;;0.93;;
6185;SDS011;3126;52.738;8.316;2023-01-16T17:03:28;1.52;;;1.15;;
6185;SDS011;3126;52.738;8.316;2023-01-16T17:08:31;1.42;;;1.00;;
6185;SDS011;3126;52.738;8.316;2023-01-16T17:13:32;1.65;;;1.55;;
6185;SDS011;3126;52.738;8.316;2023-01-16T17:18:32;0.82;;;0.82;;
6185;SDS011;3126;52.738;8.316;2023-01-16T17:23:33;1.77;;;1.30;;
6185;SDS011;3126;52.738;8.316;2023-01-16T17:28:34;2.13;;;1.95;;
6185;SDS011;3126;52.738;8.316;2023-01-16T17:33:35;1.63;;;1.17;;
6185;SDS011;3126;52.738;8.316;2023-01-16T17:38:37;1.50;;;1.40;;
6185;SDS011;3126;52.738;8.316;2023-01-16T17:43:38;1.95;;;1.75;;
6185;SDS011;3126;52.738;8.316;2023-01-16T17:48:58;2.08;;;1.70;;
6185;SDS011;3126;52.738;8.316;2023-01-16T17:53:59;2.45;;;1.38;;
6185;SDS011;3126;52.738;8.316;2023-01-16T17:59:00;2.38;;;1.70;;
6185;SDS011;3126;52.738;8.316;2023-01-16T18:04:04;2.25;;;2.05;;
6185;SDS011;3126;52.738;8.316;2023-01-16T18:09:07;2.65;;;1.60;;
6185;SDS011;3126;52.738;8.316;2023-01-16T18:14:11;2.50;;;1.75;;
6185;SDS011;3126;52.738;8.316;2023-01-16T18:19:31;4.20;;;2.72;;
6185;SDS011;3126;52.738;8.316;2023-01-16T18:24:33;2.42;;;2.05;;
6185;SDS011;3126;52.738;8.316;2023-01-16T18:29:35;3.72;;;1.77;;
6185;SDS011;3126;52.738;8.316;2023-01-16T18:34:36;5.03;;;3.67;;
6185;SDS011;3126;52.738;8.316;2023-01-16T18:39:37;2.10;;;1.90;;
6185;SDS011;3126;52.738;8.316;2023-01-16T18:44:57;7.10;;;5.22;;
6185;SDS011;3126;52.738;8.316;2023-01-16T18:50:24;2.58;;;1.92;;
6185;SDS011;3126;52.738;8.316;2023-01-16T18:55:44;2.85;;;1.60;;
6185;SDS011;3126;52.738;8.316;2023-01-16T19:01:17;1.50;;;1.40;;
6185;SDS011;3126;52.738;8.316;2023-01-16T19:06:37;2.78;;;2.33;;
6185;SDS011;3126;52.738;8.316;2023-01-16T19:11:39;2.08;;;1.70;;
6185;SDS011;3126;52.738;8.316;2023-01-16T19:16:40;2.67;;;2.10;;
6185;SDS011;3126;52.738;8.316;2023-01-16T19:21:44;2.42;;;2.20;;
6185;SDS011;3126;52.738;8.316;2023-01-16T19:26:45;1.85;;;1.70;;
6185;SDS011;3126;52.738;8.316;2023-01-16T19:31:46;3.45;;;1.55;;
6185;SDS011;3126;52.738;8.316;2023-01-16T19:36:48;1.95;;;1.75;;
6185;SDS011;3126;52.738;8.316;2023-01-16T19:41:48;1.83;;;1.58;;
6185;SDS011;3126;52.738;8.316;2023-01-16T19:47:08;3.15;;;1.70;;
6185;SDS011;3126;52.738;8.316;2023-01-16T19:52:10;2.75;;;1.42;;
6185;SDS011;3126;52.738;8.316;2023-01-16T19:57:11;2.80;;;2.60;;
6185;SDS011;3126;52.738;8.316;2023-01-16T20:02:12;1.95;;;1.85;;
6185;SDS011;3126;52.738;8.316;2023-01-16T20:07:13;2.05;;;1.95;;
6185;SDS011;3126;52.738;8.316;2023-01-16T20:12:15;4.80;;;3.03;;
6185;SDS011;3126;52.738;8.316;2023-01-16T20:17:27;2.78;;;1.83;;
6185;SDS011;3126;52.738;8.316;2023-01-16T20:22:29;2.55;;;2.10;;
6185;SDS011;3126;52.738;8.316;2023-01-16T20:27:30;1.58;;;1.45;;
6185;SDS011;3126;52.738;8.316;2023-01-16T20:32:34;5.03;;;3.75;;
6185;SDS011;3126;52.738;8.316;2023-01-16T20:37:35;4.82;;;3.63;;
6185;SDS011;3126;52.738;8.316;2023-01-16T20:42:36;3.38;;;2.83;;
6185;SDS011;3126;52.738;8.316;2023-01-16T20:47:56;4.05;;;2.40;;
6185;SDS011;3126;52.738;8.316;2023-01-16T20:52:57;11.05;;;8.00;;
6185;SDS011;3126;52.738;8.316;2023-01-16T20:57:58;11.00;;;8.25;;
6185;SDS011;3126;52.738;8.316;2023-01-16T21:02:59;3.30;;;2.83;;
6185;SDS011;3126;52.738;8.316;2023-01-16T21:08:00;5.63;;;5.03;;
6185;SDS011;3126;52.738;8.316;2023-01-16T21:13:02;4.15;;;3.63;;
6185;SDS011;3126;52.738;8.316;2023-01-16T21:18:22;3.13;;;2.80;;
6185;SDS011;3126;52.738;8.316;2023-01-16T21:23:41;2.58;;;2.22;;
6185;SDS011;3126;52.738;8.316;2023-01-16T21:28:42;5.05;;;3.60;;
6185;SDS011;3126;52.738;8.316;2023-01-16T21:33:43;3.97;;;3.67;;
6185;SDS011;3126;52.738;8.316;2023-01-16T21:38:44;4.60;;;4.05;;
6185;SDS011;3126;52.738;8.316;2023-01-16T21:43:45;4.15;;;2.90;;
6185;SDS011;3126;52.738;8.316;2023-01-16T21:49:05;5.18;;;3.92;;
6185;SDS011;3126;52.738;8.316;2023-01-16T21:54:06;2.78;;;2.40;;
6185;SDS011;3126;52.738;8.316;2023-01-16T21:59:08;4.78;;;3.72;;
6185;SDS011;3126;52.738;8.316;2023-01-16T22:04:09;4.10;;;3.33;;
6185;SDS011;3126;52.738;8.316;2023-01-16T22:09:10;4.05;;;3.63;;
6185;SDS011;3126;52.738;8.316;2023-01-16T22:14:11;9.95;;;5.45;;
6185;SDS011;3126;52.738;8.316;2023-01-16T22:19:31;4.35;;;3.95;;
6185;SDS011;3126;52.738;8.316;2023-01-16T22:24:42;3.60;;;2.83;;
6185;SDS011;3126;52.738;8.316;2023-01-16T22:29:49;7.43;;;4.60;;
6185;SDS011;3126;52.738;8.316;2023-01-16T22:34:50;4.47;;;3.67;;
6185;SDS011;3126;52.738;8.316;2023-01-16T22:39:51;3.80;;;3.50;;
6185;SDS011;3126;52.738;8.316;2023-01-16T22:44:52;3.90;;;3.50;;
6185;SDS011;3126;52.738;8.316;2023-01-16T22:50:12;5.00;;;4.60;;
6185;SDS011;3126;52.738;8.316;2023-01-16T22:55:13;4.40;;;4.00;;
6185;SDS011;3126;52.738;8.316;2023-01-16T23:00:14;5.60;;;5.10;;
6185;SDS011;3126;52.738;8.316;2023-01-16T23:05:15;7.18;;;5.65;;
6185;SDS011;3126;52.738;8.316;2023-01-16T23:10:16;7.20;;;6.40;;
6185;SDS011;3126;52.738;8.316;2023-01-16T23:15:19;7.30;;;6.10;;
6185;SDS011;3126;52.738;8.316;2023-01-16T23:20:20;9.40;;;7.00;;
6185;SDS011;3126;52.738;8.316;2023-01-16T23:25:21;10.10;;;6.65;;
6185;SDS011;3126;52.738;8.316;2023-01-16T23:30:22;9.93;;;7.57;;
6185;SDS011;3126;52.738;8.316;2023-01-16T23:35:23;11.05;;;8.23;;
6185;SDS011;3126;52.738;8.316;2023-01-16T23:40:24;12.60;;;9.60;;
6185;SDS011;3126;52.738;8.316;2023-01-16T23:45:25;13.70;;;10.18;;
6185;SDS011;3126;52.738;8.316;2023-01-16T23:50:26;13.07;;;9.20;;
6185;SDS011;3126;52.738;8.316;2023-01-16T23:55:27;14.02;;;10.32;;
